RPLB

Subic Bay International Airport

Olongapo City, Philippines
TAF RPLB 170500Z 1706/1806 23010KT 7000 -RA SCT018 OVC080 TX28/1705Z TN23/1720Z TEMPO 1706/1712 22015G25KT 4000 TSRA FEW014CB BKN016 OVC070
Issued Valid From Valid To
Jul-17 @ 05:00 UTC
(4 hours ago)
Jul-17 @ 06:00 UTC
(3 hours ago)
Jul-18 @ 06:00 UTC
(in 21 hours)
Jul-17 @ 06:00 to Jul-18 @ 06:00
TAF RPLB 170500Z 1706/1806 23010KT 7000 -RA SCT018 OVC080 TX28/1705Z TN23/1720Z
Wind Visibility Clouds Conditions
230° at 10 knots 7,001 meters
  • Scattered at 1,800' AGL
  • Overcast at 8,000' AGL
  • Light Rain
Temporary Jul-17 @ 06:00 to Jul-17 @ 12:00
TEMPO 1706/1712 22015G25KT 4000 TSRA FEW014CB BKN016 OVC070
Wind Visibility Clouds Conditions
220° at 15 knots
 Gusting to 25 knots
4,007 meters
  • Few at 1,400' AGL
  • Broken at 1,600' AGL
  • Overcast at 7,000' AGL
  • Thunderstorm
  • Rain
TAF RPLB 170500Z 1706/1806 23010KT 7000 -RA SCT018 OVC080 TX28/1705Z TN23/1720Z TEMPO 1706/1712 22015G25KT 4000 TSRA FEW014CB BKN016 OVC070
Issued Jul-17 @ 05:00 UTC
(4 hours ago)
Valid From Jul-17 @ 06:00 UTC
(3 hours ago)
Valid To Jul-18 @ 06:00 UTC
(in 21 hours)
Jul-17 @ 06:00 - Jul-18 @ 06:00
Wind Visibility
230° at 10 knots 7,001 meters
Clouds
  • Scattered at 1,800' AGL
  • Overcast at 8,000' AGL
Conditions
  • Light Rain
Temporary Jul-17 @ 06:00 - Jul-17 @ 12:00
Wind Visibility
220° at 15 knots
 Gusting to 25 knots
4,007 meters
Clouds
  • Few at 1,400' AGL
  • Broken at 1,600' AGL
  • Overcast at 7,000' AGL
Conditions
  • Thunderstorm
  • Rain